sensor_id;sensor_type;location;lat;lon;timestamp;temperature;humidity
3288;DHT22;3260;52.438;13.502;2022-07-29T04:03:08;16.00;1.00
3288;DHT22;3260;52.438;13.502;2022-07-29T04:05:38;16.10;1.00
3288;DHT22;3260;52.438;13.502;2022-07-29T04:08:06;16.10;1.00
3288;DHT22;3260;52.438;13.502;2022-07-29T04:10:35;16.20;1.00
3288;DHT22;3260;52.438;13.502;2022-07-29T04:13:05;16.30;1.00
3288;DHT22;3260;52.438;13.502;2022-07-29T04:15:33;16.40;1.00
3288;DHT22;3260;52.438;13.502;2022-07-29T04:18:01;16.40;1.00
3288;DHT22;3260;52.438;13.502;2022-07-29T04:20:30;16.60;1.00
3288;DHT22;3260;52.438;13.502;2022-07-29T04:22:59;16.60;1.00
3288;DHT22;3260;52.438;13.502;2022-07-29T04:25:27;16.70;1.00
3288;DHT22;3260;52.438;13.502;2022-07-29T04:27:55;16.70;1.00
3288;DHT22;3260;52.438;13.502;2022-07-29T04:30:30;16.80;1.00
3288;DHT22;3260;52.438;13.502;2022-07-29T04:33:00;16.90;1.00
3288;DHT22;3260;52.438;13.502;2022-07-29T04:35:30;17.00;1.00
3288;DHT22;3260;52.438;13.502;2022-07-29T04:38:05;17.10;1.00
3288;DHT22;3260;52.438;13.502;2022-07-29T04:40:42;17.20;1.00
3288;DHT22;3260;52.438;13.502;2022-07-29T04:43:10;17.30;1.00
3288;DHT22;3260;52.438;13.502;2022-07-29T04:45:41;17.40;1.00
3288;DHT22;3260;52.438;13.502;2022-07-29T04:48:09;17.50;1.00
3288;DHT22;3260;52.438;13.502;2022-07-29T04:50:39;17.50;1.00
3288;DHT22;3260;52.438;13.502;2022-07-29T04:53:08;17.60;1.00
3288;DHT22;3260;52.438;13.502;2022-07-29T04:55:36;17.70;1.00
3288;DHT22;3260;52.438;13.502;2022-07-29T04:58:04;17.80;1.00
3288;DHT22;3260;52.438;13.502;2022-07-29T05:00:34;17.80;1.00
3288;DHT22;3260;52.438;13.502;2022-07-29T05:03:02;17.90;1.00
3288;DHT22;3260;52.438;13.502;2022-07-29T05:05:30;17.90;1.00
3288;DHT22;3260;52.438;13.502;2022-07-29T05:08:00;18.00;1.00
3288;DHT22;3260;52.438;13.502;2022-07-29T05:10:28;18.10;1.00
3288;DHT22;3260;52.438;13.502;2022-07-29T05:12:56;18.20;1.00
3288;DHT22;3260;52.438;13.502;2022-07-29T05:15:25;18.30;1.00
3288;DHT22;3260;52.438;13.502;2022-07-29T05:17:53;18.40;1.00
3288;DHT22;3260;52.438;13.502;2022-07-29T05:20:21;18.40;1.00
3288;DHT22;3260;52.438;13.502;2022-07-29T05:22:52;18.50;1.00
3288;DHT22;3260;52.438;13.502;2022-07-29T05:25:22;18.60;1.00
3288;DHT22;3260;52.438;13.502;2022-07-29T05:28:09;18.60;1.00
3288;DHT22;3260;52.438;13.502;2022-07-29T05:30:38;18.70;1.00
3288;DHT22;3260;52.438;13.502;2022-07-29T05:33:06;18.80;1.00
3288;DHT22;3260;52.438;13.502;2022-07-29T05:35:54;18.90;1.00
3288;DHT22;3260;52.438;13.502;2022-07-29T05:38:26;18.90;1.00
3288;DHT22;3260;52.438;13.502;2022-07-29T05:40:58;19.00;1.00
3288;DHT22;3260;52.438;13.502;2022-07-29T05:43:26;19.10;1.00
3288;DHT22;3260;52.438;13.502;2022-07-29T05:45:55;19.20;1.00
3288;DHT22;3260;52.438;13.502;2022-07-29T05:48:23;19.30;1.00
3288;DHT22;3260;52.438;13.502;2022-07-29T05:50:52;19.40;1.00
3288;DHT22;3260;52.438;13.502;2022-07-29T05:53:21;19.50;1.00
3288;DHT22;3260;52.438;13.502;2022-07-29T05:55:49;19.60;1.00
3288;DHT22;3260;52.438;13.502;2022-07-29T05:58:19;19.80;1.00
3288;DHT22;3260;52.438;13.502;2022-07-29T06:00:48;19.90;1.00
3288;DHT22;3260;52.438;13.502;2022-07-29T06:03:16;20.00;1.00
3288;DHT22;3260;52.438;13.502;2022-07-29T06:05:44;20.10;1.00
3288;DHT22;3260;52.438;13.502;2022-07-29T06:08:12;20.30;1.00
3288;DHT22;3260;52.438;13.502;2022-07-29T06:10:40;20.50;1.00
3288;DHT22;3260;52.438;13.502;2022-07-29T06:13:09;20.70;1.00
3288;DHT22;3260;52.438;13.502;2022-07-29T06:15:38;20.90;1.00
3288;DHT22;3260;52.438;13.502;2022-07-29T06:18:07;21.10;1.00
3288;DHT22;3260;52.438;13.502;2022-07-29T06:20:36;21.40;1.00
3288;DHT22;3260;52.438;13.502;2022-07-29T06:23:04;21.60;1.00
3288;DHT22;3260;52.438;13.502;2022-07-29T06:25:32;21.80;1.00
3288;DHT22;3260;52.438;13.502;2022-07-29T06:28:02;21.90;1.00
3288;DHT22;3260;52.438;13.502;2022-07-29T06:30:31;22.10;1.00
3288;DHT22;3260;52.438;13.502;2022-07-29T06:33:00;22.30;1.00
3288;DHT22;3260;52.438;13.502;2022-07-29T06:35:28;22.50;1.00
3288;DHT22;3260;52.438;13.502;2022-07-29T06:38:07;22.60;1.00
3288;DHT22;3260;52.438;13.502;2022-07-29T06:40:55;22.60;1.00
3288;DHT22;3260;52.438;13.502;2022-07-29T06:43:31;22.80;1.00
3288;DHT22;3260;52.438;13.502;2022-07-29T06:46:18;23.00;1.00
3288;DHT22;3260;52.438;13.502;2022-07-29T06:48:49;23.10;1.00
3288;DHT22;3260;52.438;13.502;2022-07-29T06:51:19;23.20;1.00
3288;DHT22;3260;52.438;13.502;2022-07-29T06:53:49;23.40;1.00
3288;DHT22;3260;52.438;13.502;2022-07-29T06:56:28;23.40;1.00
3288;DHT22;3260;52.438;13.502;2022-07-29T06:59:03;23.50;1.00
3288;DHT22;3260;52.438;13.502;2022-07-29T07:01:32;23.50;1.00
3288;DHT22;3260;52.438;13.502;2022-07-29T07:04:01;23.50;1.00
3288;DHT22;3260;52.438;13.502;2022-07-29T07:06:30;23.50;1.00
3288;DHT22;3260;52.438;13.502;2022-07-29T07:08:58;23.50;1.00
3288;DHT22;3260;52.438;13.502;2022-07-29T07:11:26;23.60;1.00
3288;DHT22;3260;52.438;13.502;2022-07-29T07:13:54;23.60;1.00
3288;DHT22;3260;52.438;13.502;2022-07-29T07:16:28;23.70;1.00
3288;DHT22;3260;52.438;13.502;2022-07-29T07:18:57;23.80;1.00
3288;DHT22;3260;52.438;13.502;2022-07-29T07:21:26;23.90;1.00
3288;DHT22;3260;52.438;13.502;2022-07-29T07:23:57;24.00;1.00
3288;DHT22;3260;52.438;13.502;2022-07-29T07:26:25;24.00;1.00
3288;DHT22;3260;52.438;13.502;2022-07-29T07:28:53;24.00;1.00
3288;DHT22;3260;52.438;13.502;2022-07-29T07:31:21;24.00;1.00
3288;DHT22;3260;52.438;13.502;2022-07-29T07:33:50;24.00;1.00
3288;DHT22;3260;52.438;13.502;2022-07-29T07:36:18;24.00;1.00
3288;DHT22;3260;52.438;13.502;2022-07-29T07:38:48;24.10;1.00
3288;DHT22;3260;52.438;13.502;2022-07-29T07:41:17;24.10;1.00
3288;DHT22;3260;52.438;13.502;2022-07-29T07:43:45;24.20;1.00
3288;DHT22;3260;52.438;13.502;2022-07-29T07:46:13;24.30;1.00
3288;DHT22;3260;52.438;13.502;2022-07-29T07:48:41;24.40;1.00
3288;DHT22;3260;52.438;13.502;2022-07-29T07:51:09;24.40;1.00
3288;DHT22;3260;52.438;13.502;2022-07-29T07:53:38;24.50;1.00
3288;DHT22;3260;52.438;13.502;2022-07-29T07:56:07;24.50;1.00
3288;DHT22;3260;52.438;13.502;2022-07-29T07:58:38;24.60;1.00
3288;DHT22;3260;52.438;13.502;2022-07-29T08:01:06;24.80;1.00
3288;DHT22;3260;52.438;13.502;2022-07-29T08:03:35;24.90;1.00
3288;DHT22;3260;52.438;13.502;2022-07-29T08:06:04;25.20;1.00
3288;DHT22;3260;52.438;13.502;2022-07-29T08:08:33;25.40;1.00
3288;DHT22;3260;52.438;13.502;2022-07-29T08:11:01;25.60;1.00
3288;DHT22;3260;52.438;13.502;2022-07-29T08:13:37;25.90;1.00
3288;DHT22;3260;52.438;13.502;2022-07-29T08:16:06;26.10;1.00
3288;DHT22;3260;52.438;13.502;2022-07-29T08:18:43;26.30;1.00
3288;DHT22;3260;52.438;13.502;2022-07-29T08:21:13;26.40;1.00
3288;DHT22;3260;52.438;13.502;2022-07-29T08:23:43;26.40;1.00
3288;DHT22;3260;52.438;13.502;2022-07-29T08:26:26;26.50;1.00
3288;DHT22;3260;52.438;13.502;2022-07-29T08:28:56;26.50;1.00
3288;DHT22;3260;52.438;13.502;2022-07-29T08:31:24;26.40;1.00
3288;DHT22;3260;52.438;13.502;2022-07-29T08:33:52;26.40;1.00
3288;DHT22;3260;52.438;13.502;2022-07-29T08:36:20;26.40;1.00
3288;DHT22;3260;52.438;13.502;2022-07-29T08:38:48;26.40;1.00
3288;DHT22;3260;52.438;13.502;2022-07-29T08:41:17;26.40;1.00
3288;DHT22;3260;52.438;13.502;2022-07-29T08:43:46;26.40;1.00
3288;DHT22;3260;52.438;13.502;2022-07-29T08:46:17;26.40;1.00
3288;DHT22;3260;52.438;13.502;2022-07-29T08:48:46;26.50;1.00
3288;DHT22;3260;52.438;13.502;2022-07-29T08:51:16;26.60;1.00
3288;DHT22;3260;52.438;13.502;2022-07-29T08:53:46;26.70;1.00
3288;DHT22;3260;52.438;13.502;2022-07-29T08:56:16;26.90;1.00
3288;DHT22;3260;52.438;13.502;2022-07-29T08:58:47;27.10;1.00
3288;DHT22;3260;52.438;13.502;2022-07-29T09:01:23;27.30;1.00
3288;DHT22;3260;52.438;13.502;2022-07-29T09:04:04;27.50;1.00
3288;DHT22;3260;52.438;13.502;2022-07-29T09:06:39;27.70;1.00
3288;DHT22;3260;52.438;13.502;2022-07-29T09:09:12;27.80;1.00
3288;DHT22;3260;52.438;13.502;2022-07-29T09:11:41;27.80;1.00
3288;DHT22;3260;52.438;13.502;2022-07-29T09:14:12;27.80;1.00
3288;DHT22;3260;52.438;13.502;2022-07-29T09:16:50;27.70;1.00
3288;DHT22;3260;52.438;13.502;2022-07-29T09:19:25;27.70;1.00
3288;DHT22;3260;52.438;13.502;2022-07-29T09:21:56;27.70;1.00
3288;DHT22;3260;52.438;13.502;2022-07-29T09:24:26;27.70;1.00
3288;DHT22;3260;52.438;13.502;2022-07-29T09:27:08;27.70;1.00
3288;DHT22;3260;52.438;13.502;2022-07-29T09:29:55;27.90;1.00
3288;DHT22;3260;52.438;13.502;2022-07-29T09:32:27;28.20;1.00
3288;DHT22;3260;52.438;13.502;2022-07-29T09:35:16;28.60;1.00
3288;DHT22;3260;52.438;13.502;2022-07-29T09:37:46;29.00;1.00
3288;DHT22;3260;52.438;13.502;2022-07-29T09:40:17;29.50;1.00
3288;DHT22;3260;52.438;13.502;2022-07-29T09:42:47;30.00;1.00
3288;DHT22;3260;52.438;13.502;2022-07-29T09:45:26;30.40;1.00
3288;DHT22;3260;52.438;13.502;2022-07-29T09:47:58;30.70;1.00
3288;DHT22;3260;52.438;13.502;2022-07-29T09:50:37;30.80;1.00
3288;DHT22;3260;52.438;13.502;2022-07-29T09:53:07;31.00;1.00
3288;DHT22;3260;52.438;13.502;2022-07-29T09:55:47;31.30;1.00
3288;DHT22;3260;52.438;13.502;2022-07-29T09:58:18;31.60;1.00
3288;DHT22;3260;52.438;13.502;2022-07-29T10:00:49;31.70;1.00
3288;DHT22;3260;52.438;13.502;2022-07-29T10:03:19;31.80;1.00
3288;DHT22;3260;52.438;13.502;2022-07-29T10:06:05;31.70;1.00
3288;DHT22;3260;52.438;13.502;2022-07-29T10:08:34;31.70;1.00
3288;DHT22;3260;52.438;13.502;2022-07-29T10:11:10;31.60;1.00
3288;DHT22;3260;52.438;13.502;2022-07-29T10:13:41;31.50;1.00
3288;DHT22;3260;52.438;13.502;2022-07-29T10:16:11;31.60;1.00
3288;DHT22;3260;52.438;13.502;2022-07-29T10:18:42;31.90;1.00
3288;DHT22;3260;52.438;13.502;2022-07-29T10:21:13;32.40;1.00
3288;DHT22;3260;52.438;13.502;2022-07-29T10:24:04;32.70;1.00
3288;DHT22;3260;52.438;13.502;2022-07-29T10:26:41;33.10;1.00
3288;DHT22;3260;52.438;13.502;2022-07-29T10:29:10;33.30;1.00
3288;DHT22;3260;52.438;13.502;2022-07-29T10:31:47;33.40;1.00
3288;DHT22;3260;52.438;13.502;2022-07-29T10:34:31;33.50;1.00
3288;DHT22;3260;52.438;13.502;2022-07-29T10:37:17;33.70;1.00
3288;DHT22;3260;52.438;13.502;2022-07-29T10:39:57;33.70;1.00
3288;DHT22;3260;52.438;13.502;2022-07-29T10:42:52;33.80;1.00
3288;DHT22;3260;52.438;13.502;2022-07-29T10:45:21;33.90;1.00
3288;DHT22;3260;52.438;13.502;2022-07-29T10:48:03;33.90;1.00
3288;DHT22;3260;52.438;13.502;2022-07-29T10:50:56;33.90;1.00
3288;DHT22;3260;52.438;13.502;2022-07-29T10:53:48;34.00;1.00
3288;DHT22;3260;52.438;13.502;2022-07-29T10:56:24;34.20;1.00
3288;DHT22;3260;52.438;13.502;2022-07-29T10:59:24;34.50;1.00
3288;DHT22;3260;52.438;13.502;2022-07-29T11:02:02;34.80;1.00
3288;DHT22;3260;52.438;13.502;2022-07-29T11:05:11;35.30;1.00
3288;DHT22;3260;52.438;13.502;2022-07-29T11:08:18;35.70;1.00
3288;DHT22;3260;52.438;13.502;2022-07-29T11:14:17;36.60;1.00
3288;DHT22;3260;52.438;13.502;2022-07-29T11:17:00;36.90;1.00
3288;DHT22;3260;52.438;13.502;2022-07-29T11:19:33;37.00;1.00
3288;DHT22;3260;52.438;13.502;2022-07-29T11:22:08;37.30;1.00
3288;DHT22;3260;52.438;13.502;2022-07-29T11:24:43;37.20;1.00
3288;DHT22;3260;52.438;13.502;2022-07-29T11:27:18;37.10;1.00
3288;DHT22;3260;52.438;13.502;2022-07-29T11:29:53;37.10;1.00
3288;DHT22;3260;52.438;13.502;2022-07-29T11:32:35;37.20;1.00
3288;DHT22;3260;52.438;13.502;2022-07-29T11:35:13;37.30;1.00
3288;DHT22;3260;52.438;13.502;2022-07-29T11:37:45;37.30;1.00
3288;DHT22;3260;52.438;13.502;2022-07-29T11:40:24;37.60;1.00
3288;DHT22;3260;52.438;13.502;2022-07-29T11:42:52;37.90;1.00
3288;DHT22;3260;52.438;13.502;2022-07-29T11:45:45;38.50;1.00
3288;DHT22;3260;52.438;13.502;2022-07-29T11:48:18;39.10;1.00
3288;DHT22;3260;52.438;13.502;2022-07-29T11:50:56;39.90;1.00
3288;DHT22;3260;52.438;13.502;2022-07-29T11:53:25;40.70;1.00
3288;DHT22;3260;52.438;13.502;2022-07-29T11:56:00;41.40;1.00
3288;DHT22;3260;52.438;13.502;2022-07-29T11:58:29;42.10;1.00
3288;DHT22;3260;52.438;13.502;2022-07-29T12:00:59;43.00;1.00
3288;DHT22;3260;52.438;13.502;2022-07-29T12:03:31;43.60;1.00
3288;DHT22;3260;52.438;13.502;2022-07-29T12:06:03;44.30;1.00
3288;DHT22;3260;52.438;13.502;2022-07-29T12:08:40;44.60;1.00
3288;DHT22;3260;52.438;13.502;2022-07-29T12:11:17;44.60;1.00
3288;DHT22;3260;52.438;13.502;2022-07-29T12:13:48;44.40;1.00
3288;DHT22;3260;52.438;13.502;2022-07-29T12:16:17;44.60;1.00
3288;DHT22;3260;52.438;13.502;2022-07-29T12:18:57;44.80;1.00
3288;DHT22;3260;52.438;13.502;2022-07-29T12:21:26;44.20;1.00
3288;DHT22;3260;52.438;13.502;2022-07-29T12:23:55;44.10;1.00
3288;DHT22;3260;52.438;13.502;2022-07-29T12:26:36;44.60;1.00
3288;DHT22;3260;52.438;13.502;2022-07-29T12:29:17;45.30;1.00
3288;DHT22;3260;52.438;13.502;2022-07-29T12:32:02;45.80;1.00
3288;DHT22;3260;52.438;13.502;2022-07-29T12:34:45;46.90;1.00
3288;DHT22;3260;52.438;13.502;2022-07-29T12:37:14;48.10;1.00
3288;DHT22;3260;52.438;13.502;2022-07-29T12:39:42;48.50;1.00
3288;DHT22;3260;52.438;13.502;2022-07-29T12:42:14;47.40;1.00
3288;DHT22;3260;52.438;13.502;2022-07-29T12:44:46;47.30;1.00
3288;DHT22;3260;52.438;13.502;2022-07-29T12:47:15;47.20;1.00
3288;DHT22;3260;52.438;13.502;2022-07-29T12:49:44;46.80;1.00
3288;DHT22;3260;52.438;13.502;2022-07-29T12:52:26;46.30;1.00
3288;DHT22;3260;52.438;13.502;2022-07-29T12:54:56;45.80;1.00
3288;DHT22;3260;52.438;13.502;2022-07-29T12:57:26;44.90;1.00
3288;DHT22;3260;52.438;13.502;2022-07-29T13:00:04;44.20;1.00
3288;DHT22;3260;52.438;13.502;2022-07-29T13:02:37;44.90;1.00
3288;DHT22;3260;52.438;13.502;2022-07-29T13:05:08;45.30;1.00
3288;DHT22;3260;52.438;13.502;2022-07-29T13:07:38;44.30;1.00
3288;DHT22;3260;52.438;13.502;2022-07-29T13:10:23;42.50;1.00
3288;DHT22;3260;52.438;13.502;2022-07-29T13:13:04;41.80;1.00
3288;DHT22;3260;52.438;13.502;2022-07-29T13:15:34;42.00;1.00
3288;DHT22;3260;52.438;13.502;2022-07-29T13:18:05;42.30;1.00
3288;DHT22;3260;52.438;13.502;2022-07-29T13:20:53;42.60;1.00
3288;DHT22;3260;52.438;13.502;2022-07-29T13:23:21;43.50;1.00
3288;DHT22;3260;52.438;13.502;2022-07-29T13:25:49;44.80;1.00
3288;DHT22;3260;52.438;13.502;2022-07-29T13:28:21;46.40;1.00
3288;DHT22;3260;52.438;13.502;2022-07-29T13:30:49;48.20;1.00
3288;DHT22;3260;52.438;13.502;2022-07-29T13:33:17;48.40;1.00
3288;DHT22;3260;52.438;13.502;2022-07-29T13:35:45;48.50;1.00
3288;DHT22;3260;52.438;13.502;2022-07-29T13:38:14;49.30;1.00
3288;DHT22;3260;52.438;13.502;2022-07-29T13:40:42;50.30;1.00
3288;DHT22;3260;52.438;13.502;2022-07-29T13:43:11;51.30;1.00
3288;DHT22;3260;52.438;13.502;2022-07-29T13:45:40;51.90;1.00
3288;DHT22;3260;52.438;13.502;2022-07-29T13:48:09;51.50;1.00
3288;DHT22;3260;52.438;13.502;2022-07-29T13:50:37;52.30;1.00
3288;DHT22;3260;52.438;13.502;2022-07-29T13:53:06;53.10;1.00
3288;DHT22;3260;52.438;13.502;2022-07-29T13:55:34;53.90;1.00
3288;DHT22;3260;52.438;13.502;2022-07-29T13:58:02;55.00;1.00
3288;DHT22;3260;52.438;13.502;2022-07-29T14:00:31;55.70;1.00
3288;DHT22;3260;52.438;13.502;2022-07-29T14:03:00;56.40;1.00
3288;DHT22;3260;52.438;13.502;2022-07-29T14:05:28;57.00;1.00
3288;DHT22;3260;52.438;13.502;2022-07-29T14:07:56;57.00;1.00
3288;DHT22;3260;52.438;13.502;2022-07-29T14:10:25;56.80;1.00
3288;DHT22;3260;52.438;13.502;2022-07-29T14:12:54;56.50;1.00
3288;DHT22;3260;52.438;13.502;2022-07-29T14:15:22;56.00;1.00
3288;DHT22;3260;52.438;13.502;2022-07-29T14:17:50;55.90;1.00
3288;DHT22;3260;52.438;13.502;2022-07-29T14:20:20;55.80;1.00
3288;DHT22;3260;52.438;13.502;2022-07-29T14:22:48;55.60;1.00
3288;DHT22;3260;52.438;13.502;2022-07-29T14:25:16;55.50;1.00
3288;DHT22;3260;52.438;13.502;2022-07-29T14:27:46;55.80;1.00
3288;DHT22;3260;52.438;13.502;2022-07-29T14:30:14;56.20;1.00
3288;DHT22;3260;52.438;13.502;2022-07-29T14:32:43;56.00;1.00
3288;DHT22;3260;52.438;13.502;2022-07-29T14:35:11;56.30;1.00
3288;DHT22;3260;52.438;13.502;2022-07-29T14:37:40;56.00;1.00
3288;DHT22;3260;52.438;13.502;2022-07-29T14:40:10;56.20;1.00
3288;DHT22;3260;52.438;13.502;2022-07-29T14:42:39;57.10;1.00
3288;DHT22;3260;52.438;13.502;2022-07-29T14:45:08;57.00;1.00
3288;DHT22;3260;52.438;13.502;2022-07-29T14:47:37;55.30;1.00
3288;DHT22;3260;52.438;13.502;2022-07-29T14:50:06;54.70;1.00
3288;DHT22;3260;52.438;13.502;2022-07-29T14:52:35;54.80;1.00
3288;DHT22;3260;52.438;13.502;2022-07-29T14:55:06;55.30;1.00
3288;DHT22;3260;52.438;13.502;2022-07-29T14:57:45;55.70;1.00
3288;DHT22;3260;52.438;13.502;2022-07-29T15:00:13;54.50;1.00
3288;DHT22;3260;52.438;13.502;2022-07-29T15:02:42;53.00;1.00
3288;DHT22;3260;52.438;13.502;2022-07-29T15:05:27;52.20;1.00
3288;DHT22;3260;52.438;13.502;2022-07-29T15:07:55;51.20;1.00
3288;DHT22;3260;52.438;13.502;2022-07-29T15:10:25;51.70;1.00
3288;DHT22;3260;52.438;13.502;2022-07-29T15:12:53;52.60;1.00
3288;DHT22;3260;52.438;13.502;2022-07-29T15:15:22;52.60;1.00
3288;DHT22;3260;52.438;13.502;2022-07-29T15:17:50;51.90;1.00
3288;DHT22;3260;52.438;13.502;2022-07-29T15:20:18;52.40;1.00
3288;DHT22;3260;52.438;13.502;2022-07-29T15:22:47;53.20;1.00
3288;DHT22;3260;52.438;13.502;2022-07-29T15:25:15;53.80;1.00
3288;DHT22;3260;52.438;13.502;2022-07-29T15:27:45;54.30;1.00
3288;DHT22;3260;52.438;13.502;2022-07-29T15:30:19;54.60;1.00
3288;DHT22;3260;52.438;13.502;2022-07-29T15:32:59;55.10;1.00
3288;DHT22;3260;52.438;13.502;2022-07-29T15:35:27;55.40;1.00
3288;DHT22;3260;52.438;13.502;2022-07-29T15:37:55;55.70;1.00
3288;DHT22;3260;52.438;13.502;2022-07-29T15:40:23;56.00;1.00
3288;DHT22;3260;52.438;13.502;2022-07-29T15:42:53;56.20;1.00
3288;DHT22;3260;52.438;13.502;2022-07-29T15:45:21;56.30;1.00
3288;DHT22;3260;52.438;13.502;2022-07-29T15:47:50;56.00;1.00
3288;DHT22;3260;52.438;13.502;2022-07-29T15:50:18;55.70;1.00
3288;DHT22;3260;52.438;13.502;2022-07-29T15:52:46;55.80;1.00
3288;DHT22;3260;52.438;13.502;2022-07-29T15:55:15;55.60;1.00
3288;DHT22;3260;52.438;13.502;2022-07-29T15:57:43;55.20;1.00
3288;DHT22;3260;52.438;13.502;2022-07-29T16:00:13;54.60;1.00
3288;DHT22;3260;52.438;13.502;2022-07-29T16:02:43;53.90;1.00
3288;DHT22;3260;52.438;13.502;2022-07-29T16:05:11;53.40;1.00
3288;DHT22;3260;52.438;13.502;2022-07-29T16:07:39;53.40;1.00
3288;DHT22;3260;52.438;13.502;2022-07-29T16:10:07;53.20;1.00
3288;DHT22;3260;52.438;13.502;2022-07-29T16:12:36;53.10;1.00
3288;DHT22;3260;52.438;13.502;2022-07-29T16:15:04;53.00;1.00
3288;DHT22;3260;52.438;13.502;2022-07-29T16:17:37;52.70;1.00
3288;DHT22;3260;52.438;13.502;2022-07-29T16:20:06;52.20;1.00
3288;DHT22;3260;52.438;13.502;2022-07-29T16:22:36;51.60;1.00
3288;DHT22;3260;52.438;13.502;2022-07-29T16:25:05;51.30;1.00
3288;DHT22;3260;52.438;13.502;2022-07-29T16:27:33;51.10;1.00
3288;DHT22;3260;52.438;13.502;2022-07-29T16:30:05;50.90;1.00
3288;DHT22;3260;52.438;13.502;2022-07-29T16:32:36;51.00;1.00
3288;DHT22;3260;52.438;13.502;2022-07-29T16:35:06;50.80;1.00
3288;DHT22;3260;52.438;13.502;2022-07-29T16:37:35;50.80;1.00
3288;DHT22;3260;52.438;13.502;2022-07-29T16:40:06;50.40;1.00
3288;DHT22;3260;52.438;13.502;2022-07-29T16:42:37;50.00;1.00
3288;DHT22;3260;52.438;13.502;2022-07-29T16:45:14;49.70;1.00
3288;DHT22;3260;52.438;13.502;2022-07-29T16:47:48;48.70;1.00
3288;DHT22;3260;52.438;13.502;2022-07-29T16:50:16;47.60;1.00
3288;DHT22;3260;52.438;13.502;2022-07-29T16:52:45;46.70;1.00
3288;DHT22;3260;52.438;13.502;2022-07-29T16:55:13;45.80;1.00
3288;DHT22;3260;52.438;13.502;2022-07-29T16:57:41;45.20;1.00
3288;DHT22;3260;52.438;13.502;2022-07-29T17:00:11;44.50;1.00
3288;DHT22;3260;52.438;13.502;2022-07-29T17:02:40;43.50;1.00
3288;DHT22;3260;52.438;13.502;2022-07-29T17:05:10;42.20;1.00
3288;DHT22;3260;52.438;13.502;2022-07-29T17:07:40;40.90;1.00
3288;DHT22;3260;52.438;13.502;2022-07-29T17:10:09;39.80;1.00
3288;DHT22;3260;52.438;13.502;2022-07-29T17:12:39;38.60;1.00
3288;DHT22;3260;52.438;13.502;2022-07-29T17:15:09;37.60;1.00
3288;DHT22;3260;52.438;13.502;2022-07-29T17:17:39;36.70;1.00
3288;DHT22;3260;52.438;13.502;2022-07-29T17:20:24;36.10;1.00
3288;DHT22;3260;52.438;13.502;2022-07-29T17:22:53;35.60;1.00
3288;DHT22;3260;52.438;13.502;2022-07-29T17:25:22;35.10;1.00
3288;DHT22;3260;52.438;13.502;2022-07-29T17:27:50;34.90;1.00
3288;DHT22;3260;52.438;13.502;2022-07-29T17:30:23;35.00;1.00
3288;DHT22;3260;52.438;13.502;2022-07-29T17:32:51;35.00;1.00
3288;DHT22;3260;52.438;13.502;2022-07-29T17:35:20;35.30;1.00
3288;DHT22;3260;52.438;13.502;2022-07-29T17:38:07;35.70;1.00
3288;DHT22;3260;52.438;13.502;2022-07-29T17:40:36;36.30;1.00
3288;DHT22;3260;52.438;13.502;2022-07-29T17:43:04;36.60;1.00
3288;DHT22;3260;52.438;13.502;2022-07-29T17:45:34;36.90;1.00
3288;DHT22;3260;52.438;13.502;2022-07-29T17:48:16;37.00;1.00
3288;DHT22;3260;52.438;13.502;2022-07-29T17:50:44;36.80;1.00
3288;DHT22;3260;52.438;13.502;2022-07-29T17:53:14;36.60;1.00
3288;DHT22;3260;52.438;13.502;2022-07-29T17:55:43;36.40;1.00
3288;DHT22;3260;52.438;13.502;2022-07-29T17:58:11;36.20;1.00
3288;DHT22;3260;52.438;13.502;2022-07-29T18:00:40;36.20;1.00
3288;DHT22;3260;52.438;13.502;2022-07-29T18:03:08;36.00;1.00
3288;DHT22;3260;52.438;13.502;2022-07-29T18:05:37;35.50;1.00
3288;DHT22;3260;52.438;13.502;2022-07-29T18:08:05;34.70;1.00
3288;DHT22;3260;52.438;13.502;2022-07-29T18:10:34;34.00;1.00
3288;DHT22;3260;52.438;13.502;2022-07-29T18:13:03;33.40;1.00
3288;DHT22;3260;52.438;13.502;2022-07-29T18:15:31;32.80;1.00
3288;DHT22;3260;52.438;13.502;2022-07-29T18:17:59;32.20;1.00
3288;DHT22;3260;52.438;13.502;2022-07-29T18:20:28;31.70;1.00
3288;DHT22;3260;52.438;13.502;2022-07-29T18:22:56;31.00;1.00
3288;DHT22;3260;52.438;13.502;2022-07-29T18:25:25;30.50;1.00
3288;DHT22;3260;52.438;13.502;2022-07-29T18:27:56;29.90;1.00
3288;DHT22;3260;52.438;13.502;2022-07-29T18:30:26;29.60;1.00
3288;DHT22;3260;52.438;13.502;2022-07-29T18:32:55;29.10;1.00
3288;DHT22;3260;52.438;13.502;2022-07-29T18:35:43;28.80;1.00
3288;DHT22;3260;52.438;13.502;2022-07-29T18:38:12;28.40;1.00
3288;DHT22;3260;52.438;13.502;2022-07-29T18:40:41;28.20;1.00
3288;DHT22;3260;52.438;13.502;2022-07-29T18:43:12;27.90;1.00
3288;DHT22;3260;52.438;13.502;2022-07-29T18:45:40;27.60;1.00
3288;DHT22;3260;52.438;13.502;2022-07-29T18:48:08;27.40;1.00
3288;DHT22;3260;52.438;13.502;2022-07-29T18:50:38;27.20;1.00
3288;DHT22;3260;52.438;13.502;2022-07-29T18:53:07;27.00;1.00
3288;DHT22;3260;52.438;13.502;2022-07-29T18:55:35;26.70;1.00
3288;DHT22;3260;52.438;13.502;2022-07-29T18:58:03;26.60;1.00
3288;DHT22;3260;52.438;13.502;2022-07-29T19:00:32;26.40;1.00
3288;DHT22;3260;52.438;13.502;2022-07-29T19:03:01;26.10;1.00
3288;DHT22;3260;52.438;13.502;2022-07-29T19:05:30;25.90;1.00
3288;DHT22;3260;52.438;13.502;2022-07-29T19:07:58;25.70;1.00
3288;DHT22;3260;52.438;13.502;2022-07-29T19:10:26;25.60;1.00
3288;DHT22;3260;52.438;13.502;2022-07-29T19:12:55;25.40;1.00
3288;DHT22;3260;52.438;13.502;2022-07-29T19:15:24;25.20;1.00
3288;DHT22;3260;52.438;13.502;2022-07-29T19:17:53;25.00;1.00
3288;DHT22;3260;52.438;13.502;2022-07-29T19:20:26;24.90;1.00
3288;DHT22;3260;52.438;13.502;2022-07-29T19:22:55;24.70;1.00
3288;DHT22;3260;52.438;13.502;2022-07-29T19:25:24;24.60;1.00
3288;DHT22;3260;52.438;13.502;2022-07-29T19:27:52;24.50;1.00
3288;DHT22;3260;52.438;13.502;2022-07-29T19:30:20;24.40;1.00
3288;DHT22;3260;52.438;13.502;2022-07-29T19:32:49;24.20;1.00
3288;DHT22;3260;52.438;13.502;2022-07-29T19:35:19;24.20;1.00
3288;DHT22;3260;52.438;13.502;2022-07-29T19:37:59;24.10;1.00
3288;DHT22;3260;52.438;13.502;2022-07-29T19:40:28;23.90;1.00
3288;DHT22;3260;52.438;13.502;2022-07-29T19:42:57;23.90;1.00
3288;DHT22;3260;52.438;13.502;2022-07-29T19:45:26;23.80;1.00
3288;DHT22;3260;52.438;13.502;2022-07-29T19:47:56;23.70;1.00
3288;DHT22;3260;52.438;13.502;2022-07-29T19:50:28;23.60;1.00
3288;DHT22;3260;52.438;13.502;2022-07-29T19:52:57;23.60;1.00
3288;DHT22;3260;52.438;13.502;2022-07-29T19:55:26;23.50;1.00
3288;DHT22;3260;52.438;13.502;2022-07-29T19:57:55;23.40;1.00
3288;DHT22;3260;52.438;13.502;2022-07-29T20:00:26;23.30;1.00
3288;DHT22;3260;52.438;13.502;2022-07-29T20:02:55;23.30;1.00
3288;DHT22;3260;52.438;13.502;2022-07-29T20:05:23;23.20;1.00
3288;DHT22;3260;52.438;13.502;2022-07-29T20:07:55;23.20;1.00
3288;DHT22;3260;52.438;13.502;2022-07-29T20:10:24;23.10;1.00
3288;DHT22;3260;52.438;13.502;2022-07-29T20:12:52;23.10;1.00
3288;DHT22;3260;52.438;13.502;2022-07-29T20:15:21;23.00;1.00
3288;DHT22;3260;52.438;13.502;2022-07-29T20:17:49;23.00;1.00
3288;DHT22;3260;52.438;13.502;2022-07-29T20:20:23;22.90;1.00
3288;DHT22;3260;52.438;13.502;2022-07-29T20:22:52;22.90;1.00
3288;DHT22;3260;52.438;13.502;2022-07-29T20:25:22;22.80;1.00
3288;DHT22;3260;52.438;13.502;2022-07-29T20:27:51;22.80;1.00
3288;DHT22;3260;52.438;13.502;2022-07-29T20:30:20;22.70;1.00
3288;DHT22;3260;52.438;13.502;2022-07-29T20:32:49;22.70;1.00
3288;DHT22;3260;52.438;13.502;2022-07-29T20:35:17;22.70;1.00